createdAt,value
2023-06-30T13:52:57.231Z,21.36
2023-06-30T13:55:28.606Z,21.39
2023-06-30T13:57:59.802Z,21.38
2023-06-30T14:00:28.474Z,21.38
2023-06-30T14:02:57.471Z,21.47
2023-06-30T14:05:26.479Z,21.49
2023-06-30T14:07:54.780Z,21.57
2023-06-30T14:10:23.700Z,21.63
2023-06-30T14:12:52.003Z,21.50
2023-06-30T14:15:21.084Z,21.54
2023-06-30T14:17:49.564Z,21.57
2023-06-30T14:20:17.735Z,21.58
2023-06-30T14:22:45.916Z,21.60
2023-06-30T14:25:25.636Z,21.56
2023-06-30T17:50:48.097Z,20.56
2023-06-30T17:53:16.577Z,20.55
2023-06-30T17:55:52.001Z,20.54
2023-06-30T17:58:21.612Z,20.54
2023-06-30T18:00:50.246Z,20.57
2023-06-30T18:03:18.783Z,20.57
2023-06-30T18:05:47.111Z,20.60
2023-06-30T18:08:15.576Z,20.63
2023-06-30T18:10:44.682Z,20.67
2023-06-30T18:13:13.495Z,20.66
2023-06-30T18:15:41.855Z,20.67
2023-06-30T18:18:10.478Z,20.68
2023-06-30T18:20:39.147Z,20.66
2023-06-30T18:23:07.573Z,20.67
2023-06-30T18:25:36.433Z,20.65
2023-06-30T18:28:05.374Z,20.66
2023-06-30T18:30:33.990Z,20.62
2023-06-30T18:33:02.478Z,20.64
2023-06-30T18:35:31.230Z,20.61
2023-06-30T18:37:59.778Z,20.56
2023-06-30T18:40:28.436Z,20.55
2023-06-30T18:42:57.297Z,20.56
2023-06-30T18:45:25.939Z,20.54
2023-06-30T18:47:54.662Z,20.56
2023-06-30T18:50:24.461Z,20.51
2023-06-30T18:52:52.787Z,20.45
2023-06-30T18:55:21.580Z,20.46
2023-06-30T18:57:50.082Z,20.47
2023-06-30T19:00:18.859Z,20.44
2023-06-30T19:02:47.077Z,20.45
2023-06-30T19:05:15.086Z,20.43
2023-06-30T19:07:43.082Z,20.36
2023-06-30T19:10:11.885Z,20.36
2023-06-30T19:12:40.161Z,20.27
2023-06-30T19:15:08.985Z,20.26
2023-06-30T19:17:37.721Z,20.22
2023-06-30T19:20:06.548Z,20.19
2023-06-30T19:22:35.068Z,20.15
2023-06-30T19:25:04.710Z,20.12
2023-06-30T19:27:33.434Z,20.16
2023-06-30T19:30:02.411Z,20.11
2023-06-30T19:32:32.598Z,20.13
2023-06-30T19:35:01.385Z,20.16
2023-06-30T19:37:30.330Z,20.15
2023-06-30T19:39:59.373Z,20.15
2023-06-30T19:42:28.220Z,20.13
2023-06-30T19:44:57.395Z,20.13
2023-06-30T19:47:26.302Z,20.13
2023-06-30T19:49:55.466Z,20.11
2023-06-30T19:52:23.754Z,20.10
2023-06-30T19:54:52.532Z,20.14
2023-06-30T19:57:20.789Z,20.15
2023-06-30T19:59:49.055Z,20.15
2023-06-30T20:02:17.828Z,20.13
2023-06-30T20:04:46.621Z,20.10
2023-06-30T20:07:15.302Z,20.11
2023-06-30T20:09:43.891Z,20.11
2023-06-30T20:12:12.625Z,20.08
2023-06-30T20:14:41.045Z,20.08
2023-06-30T20:17:10.753Z,20.07
2023-06-30T20:19:41.168Z,20.07
2023-06-30T20:22:09.628Z,20.04
2023-06-30T20:24:38.529Z,20.03
2023-06-30T20:27:08.199Z,19.97
2023-06-30T20:29:36.564Z,19.99
2023-06-30T20:32:05.593Z,20.00
2023-06-30T20:34:33.920Z,19.97
2023-06-30T20:37:02.640Z,19.94
2023-06-30T20:39:31.033Z,19.94
2023-06-30T20:41:59.964Z,19.92
2023-06-30T20:44:28.640Z,19.93
2023-06-30T20:46:57.161Z,19.95
2023-06-30T20:49:25.775Z,19.91
2023-06-30T20:51:55.328Z,19.92
2023-06-30T20:54:25.712Z,19.93
2023-06-30T20:56:56.254Z,19.96
2023-06-30T20:59:24.552Z,19.94
2023-06-30T21:01:53.668Z,19.92
2023-06-30T21:04:22.160Z,19.89
2023-06-30T21:06:50.816Z,19.90
2023-06-30T21:09:19.697Z,19.92
2023-06-30T21:11:49.148Z,19.93
2023-06-30T21:14:18.226Z,19.89
2023-06-30T21:16:46.573Z,19.86
2023-06-30T21:19:15.313Z,19.86
2023-06-30T21:21:43.732Z,19.86
2023-06-30T21:24:12.683Z,19.82
2023-06-30T21:26:43.123Z,19.81
2023-06-30T21:29:13.893Z,19.79
2023-06-30T21:31:42.460Z,19.77
2023-06-30T21:34:11.419Z,19.74
2023-06-30T21:36:40.570Z,19.71
2023-06-30T21:39:08.969Z,19.65
2023-06-30T21:41:40.103Z,19.72
2023-06-30T21:44:08.659Z,19.67
2023-06-30T21:46:37.440Z,19.71
2023-06-30T21:49:05.863Z,19.66
2023-06-30T21:51:34.169Z,19.67
2023-06-30T21:54:07.470Z,19.67
2023-06-30T21:56:35.612Z,19.67
2023-06-30T21:59:06.952Z,19.59
2023-06-30T22:01:41.179Z,19.62
2023-06-30T22:04:10.852Z,19.67
2023-06-30T22:06:39.621Z,19.70
2023-06-30T22:09:15.942Z,19.71
